createdAt,value
2018-05-07T00:00:42.608Z,18.60
2018-05-07T00:03:10.067Z,18.50
2018-05-07T00:05:37.517Z,18.50
2018-05-07T00:08:05.030Z,18.40
2018-05-07T00:10:33.323Z,18.50
2018-05-07T00:13:01.754Z,18.50
2018-05-07T00:15:29.218Z,18.50
2018-05-07T00:17:56.691Z,18.50
2018-05-07T00:20:24.184Z,18.40
2018-05-07T00:22:51.681Z,18.40
2018-05-07T00:25:19.155Z,18.40
2018-05-07T00:27:47.373Z,18.40
2018-05-07T00:30:14.831Z,18.40
2018-05-07T00:35:16.284Z,18.40
2018-05-07T00:37:43.729Z,18.40
2018-05-07T00:40:11.203Z,18.30
2018-05-07T00:42:38.652Z,18.30
2018-05-07T00:45:06.142Z,18.30
2018-05-07T00:47:33.613Z,18.20
2018-05-07T00:50:01.076Z,18.20
2018-05-07T00:52:28.564Z,18.10
2018-05-07T00:55:07.939Z,18.00
2018-05-07T00:57:35.397Z,18.00
2018-05-07T01:00:02.838Z,18.00
2018-05-07T01:02:30.299Z,18.00
2018-05-07T01:04:57.745Z,17.80
2018-05-07T01:07:25.223Z,17.60
2018-05-07T01:09:52.667Z,17.50
2018-05-07T01:12:20.896Z,17.30
2018-05-07T01:14:48.362Z,17.30
2018-05-07T01:17:16.592Z,17.00
2018-05-07T01:19:44.048Z,16.90
2018-05-07T01:22:11.758Z,16.80
2018-05-07T01:24:39.251Z,16.70
2018-05-07T01:27:06.823Z,16.50
2018-05-07T01:29:34.302Z,16.50
2018-05-07T01:32:01.786Z,16.50
2018-05-07T01:34:29.274Z,16.10
2018-05-07T01:36:56.806Z,16.00
2018-05-07T01:39:24.251Z,15.80
2018-05-07T01:41:51.712Z,15.90
2018-05-07T01:44:19.952Z,15.70
2018-05-07T01:46:48.449Z,15.50
2018-05-07T01:49:15.943Z,15.50
2018-05-07T01:51:43.411Z,15.50
2018-05-07T01:54:10.904Z,15.50
2018-05-07T01:56:38.384Z,15.30
2018-05-07T01:59:05.849Z,15.30
2018-05-07T02:01:34.068Z,15.20
2018-05-07T02:04:01.534Z,15.20
2018-05-07T02:06:28.993Z,15.10
2018-05-07T02:08:56.439Z,15.00
2018-05-07T02:11:23.968Z,14.90
2018-05-07T02:13:52.302Z,14.70
2018-05-07T02:16:19.773Z,14.60
2018-05-07T02:18:47.261Z,14.60
2018-05-07T02:21:14.704Z,14.40
2018-05-07T02:23:42.195Z,14.30
2018-05-07T02:26:09.679Z,14.20
2018-05-07T02:28:37.152Z,14.10
2018-05-07T02:31:04.650Z,14.00
2018-05-07T02:33:32.149Z,14.10
2018-05-07T02:35:59.646Z,14.00
2018-05-07T02:38:27.898Z,14.10
2018-05-07T02:40:55.403Z,14.10
2018-05-07T02:43:22.919Z,14.00
2018-05-07T02:45:51.210Z,13.90
2018-05-07T02:48:18.758Z,13.80
2018-05-07T02:50:47.013Z,13.80
2018-05-07T02:53:14.894Z,13.80
2018-05-07T02:55:42.476Z,13.80
2018-05-07T02:58:09.985Z,13.70
2018-05-07T03:00:37.551Z,13.70
2018-05-07T03:03:05.140Z,13.60
2018-05-07T03:05:33.419Z,13.60
2018-05-07T03:08:01.706Z,13.50
2018-05-07T03:10:29.257Z,13.50
2018-05-07T03:12:57.532Z,13.50
2018-05-07T03:15:25.794Z,13.40
2018-05-07T03:17:53.311Z,13.40
2018-05-07T03:20:20.838Z,13.30
2018-05-07T03:22:48.390Z,13.30
2018-05-07T03:25:15.902Z,13.30
2018-05-07T03:27:43.406Z,13.20
2018-05-07T03:30:10.903Z,13.30
2018-05-07T03:32:38.397Z,13.10
2018-05-07T03:35:05.958Z,13.10
2018-05-07T03:37:34.239Z,13.00
2018-05-07T03:40:02.492Z,13.10
2018-05-07T03:42:29.986Z,13.00
2018-05-07T03:44:57.473Z,13.00
2018-05-07T03:47:25.015Z,13.00
2018-05-07T03:49:52.510Z,13.00
2018-05-07T03:52:21.737Z,12.90
2018-05-07T03:54:49.226Z,12.90
2018-05-07T03:57:16.724Z,12.90
2018-05-07T03:59:44.242Z,12.90
2018-05-07T04:02:11.744Z,12.70
2018-05-07T04:04:40.022Z,12.50
2018-05-07T04:07:07.522Z,12.50
2018-05-07T04:09:35.874Z,12.50
2018-05-07T04:12:04.179Z,12.50
2018-05-07T04:14:31.660Z,12.60
2018-05-07T04:17:10.858Z,12.50
2018-05-07T04:19:50.087Z,12.50
2018-05-07T04:22:30.900Z,12.40
2018-05-07T04:24:58.399Z,12.30
2018-05-07T04:27:25.980Z,12.40
2018-05-07T04:29:53.513Z,12.40
2018-05-07T04:32:21.002Z,12.30
2018-05-07T04:34:48.557Z,12.30
2018-05-07T04:37:16.089Z,12.20
2018-05-07T04:39:43.740Z,12.20
2018-05-07T04:42:11.252Z,12.30
2018-05-07T04:44:38.741Z,12.20
2018-05-07T04:47:16.668Z,12.30
2018-05-07T04:49:44.230Z,12.20
2018-05-07T04:52:12.628Z,12.20
2018-05-07T04:54:40.206Z,12.20
2018-05-07T04:57:07.800Z,12.20
2018-05-07T04:59:35.271Z,12.20
2018-05-07T05:02:02.762Z,12.20
2018-05-07T05:04:31.161Z,12.30
2018-05-07T05:06:58.824Z,12.30
2018-05-07T05:09:26.317Z,12.20
2018-05-07T05:11:53.811Z,12.10
2018-05-07T05:14:22.070Z,12.20
2018-05-07T05:16:49.617Z,12.20
2018-05-07T05:19:17.322Z,12.10
2018-05-07T05:21:45.575Z,12.10
2018-05-07T05:24:13.083Z,12.10
2018-05-07T05:26:40.626Z,12.20
2018-05-07T05:29:08.119Z,12.30
2018-05-07T05:31:35.609Z,12.60
2018-05-07T05:34:12.207Z,12.70
2018-05-07T05:36:40.179Z,12.70
2018-05-07T05:39:08.070Z,12.60
2018-05-07T05:41:36.374Z,12.80
2018-05-07T05:44:04.638Z,13.00
2018-05-07T05:46:32.157Z,13.00
2018-05-07T05:48:59.930Z,12.90
2018-05-07T05:51:27.441Z,13.00
2018-05-07T05:53:55.707Z,13.20
2018-05-07T05:56:23.638Z,13.20
2018-05-07T05:58:51.170Z,13.20
2018-05-07T06:01:18.667Z,13.40
2018-05-07T06:03:46.552Z,13.60
2018-05-07T06:06:16.304Z,13.80
2018-05-07T06:08:44.963Z,13.70
2018-05-07T06:11:14.192Z,13.70
2018-05-07T06:13:42.675Z,13.70
2018-05-07T06:16:11.672Z,13.80
2018-05-07T06:18:39.312Z,13.80
2018-05-07T06:21:06.833Z,13.90
2018-05-07T06:23:34.353Z,14.00
2018-05-07T06:26:02.030Z,14.30
2018-05-07T06:28:29.536Z,14.40
2018-05-07T06:30:57.803Z,14.60
2018-05-07T06:33:25.414Z,14.60
2018-05-07T06:35:52.910Z,14.70
2018-05-07T06:38:21.174Z,14.70
2018-05-07T06:40:49.454Z,14.90
2018-05-07T06:43:17.138Z,14.90
2018-05-07T06:45:45.424Z,15.20
2018-05-07T06:48:13.000Z,15.20
2018-05-07T06:50:40.480Z,15.30
2018-05-07T06:53:07.983Z,15.50
2018-05-07T06:58:12.014Z,15.60
2018-05-07T07:00:40.261Z,15.90
2018-05-07T07:03:08.524Z,16.00
2018-05-07T07:05:36.085Z,16.00
2018-05-07T07:08:03.764Z,16.00
2018-05-07T07:10:31.318Z,16.10
2018-05-07T07:12:59.692Z,16.40
2018-05-07T07:15:27.469Z,16.40
2018-05-07T07:18:07.413Z,16.40
2018-05-07T07:26:28.698Z,16.60
2018-05-07T07:32:21.630Z,16.80
2018-05-07T07:35:04.084Z,16.80
2018-05-07T07:50:31.521Z,17.60
2018-05-07T07:52:59.054Z,17.60
2018-05-07T07:55:39.726Z,17.90
2018-05-07T07:58:07.986Z,17.90
2018-05-07T08:00:36.269Z,18.10
2018-05-07T08:03:05.198Z,18.20
2018-05-07T08:05:32.713Z,18.20
2018-05-07T08:08:00.262Z,18.20
2018-05-07T08:10:27.769Z,18.30
2018-05-07T08:12:56.071Z,18.50
2018-05-07T08:15:23.558Z,18.50
2018-05-07T08:17:51.063Z,18.50
2018-05-07T08:20:18.656Z,18.50
2018-05-07T08:22:46.206Z,18.60
2018-05-07T08:25:13.701Z,18.60
2018-05-07T08:27:41.991Z,18.70
2018-05-07T08:30:09.468Z,18.70
2018-05-07T08:32:37.052Z,18.80
2018-05-07T08:35:04.567Z,18.90
2018-05-07T08:37:32.089Z,18.90
2018-05-07T08:39:59.587Z,18.90
2018-05-07T08:42:27.095Z,18.90
2018-05-07T08:44:54.592Z,19.10
2018-05-07T08:47:22.098Z,19.10
2018-05-07T08:49:49.596Z,19.10
2018-05-07T08:52:17.868Z,19.20
2018-05-07T08:54:46.140Z,19.40
2018-05-07T08:57:13.639Z,19.40
2018-05-07T08:59:41.126Z,19.50
2018-05-07T09:04:43.302Z,19.70
2018-05-07T09:07:10.869Z,19.70
2018-05-07T09:09:38.362Z,19.80
2018-05-07T09:12:06.610Z,20.10
2018-05-07T09:14:34.151Z,20.00
2018-05-07T09:17:01.666Z,20.10
2018-05-07T09:19:29.927Z,20.20
2018-05-07T09:21:58.341Z,20.20
2018-05-07T09:24:26.020Z,20.20
2018-05-07T09:26:53.593Z,20.40
2018-05-07T09:29:21.171Z,20.60
2018-05-07T09:31:48.696Z,20.60
2018-05-07T09:34:16.186Z,20.70
2018-05-07T09:36:43.686Z,20.80
2018-05-07T09:39:11.179Z,20.80
2018-05-07T09:41:38.652Z,20.80
2018-05-07T09:44:06.735Z,20.90
2018-05-07T09:46:35.002Z,21.00
2018-05-07T09:49:02.603Z,21.00
2018-05-07T09:51:30.030Z,21.10
2018-05-07T09:53:58.277Z,21.40
2018-05-07T09:56:25.779Z,21.40
2018-05-07T09:58:58.105Z,21.40
2018-05-07T10:01:25.624Z,21.60
2018-05-07T10:03:53.143Z,21.70
2018-05-07T10:06:20.690Z,21.80
2018-05-07T10:08:48.201Z,21.90
2018-05-07T10:11:15.694Z,22.00
2018-05-07T10:13:43.194Z,22.00
2018-05-07T10:16:10.760Z,22.00
2018-05-07T10:18:38.316Z,22.20
2018-05-07T10:21:05.829Z,22.30
2018-05-07T10:23:33.494Z,22.40
2018-05-07T10:26:00.951Z,22.50
2018-05-07T10:28:29.254Z,22.80
2018-05-07T10:30:57.669Z,22.90
2018-05-07T10:33:25.276Z,22.90
2018-05-07T10:35:52.847Z,23.00
2018-05-07T10:38:21.276Z,23.00
2018-05-07T10:40:48.800Z,23.00
2018-05-07T10:43:16.303Z,23.10
2018-05-07T10:45:43.800Z,23.20
2018-05-07T10:48:11.372Z,23.30
2018-05-07T10:50:39.648Z,23.50
2018-05-07T10:53:07.914Z,23.60
2018-05-07T10:55:36.200Z,23.60
2018-05-07T10:58:03.842Z,23.60
2018-05-07T11:00:32.180Z,23.70
2018-05-07T11:02:59.702Z,23.70
2018-05-07T11:05:27.494Z,23.70
2018-05-07T11:07:54.985Z,23.90
2018-05-07T11:10:22.604Z,23.90
2018-05-07T11:12:50.105Z,24.00
2018-05-07T11:15:17.607Z,24.00
2018-05-07T11:17:45.099Z,24.00
2018-05-07T11:20:12.602Z,24.20
2018-05-07T11:22:40.167Z,24.30
2018-05-07T11:25:07.718Z,24.40
2018-05-07T11:27:35.235Z,24.50
2018-05-07T11:30:02.766Z,24.60
2018-05-07T11:32:30.282Z,24.50
2018-05-07T11:34:58.562Z,24.60
2018-05-07T11:37:26.867Z,24.70
2018-05-07T11:39:54.393Z,24.60
2018-05-07T11:42:22.671Z,24.70
2018-05-07T11:44:50.983Z,24.80
2018-05-07T11:47:18.579Z,24.80
2018-05-07T11:49:46.109Z,24.80
2018-05-07T11:52:13.620Z,24.60
2018-05-07T11:54:41.122Z,24.60
2018-05-07T11:57:08.654Z,24.70
2018-05-07T11:59:36.299Z,24.60
2018-05-07T12:02:04.005Z,24.60
2018-05-07T12:04:31.539Z,24.80
2018-05-07T12:06:59.109Z,24.90
2018-05-07T12:09:26.651Z,24.90
2018-05-07T12:11:54.876Z,25.00
2018-05-07T12:14:22.368Z,25.00
2018-05-07T12:16:49.957Z,25.20
2018-05-07T12:19:17.489Z,25.20
2018-05-07T12:21:45.140Z,25.10
2018-05-07T12:24:12.634Z,25.00
2018-05-07T12:26:40.164Z,25.10
2018-05-07T12:29:08.430Z,25.20
2018-05-07T12:31:36.848Z,25.20
2018-05-07T12:34:04.240Z,25.20
2018-05-07T12:36:31.772Z,25.20
2018-05-07T12:38:59.294Z,25.20
2018-05-07T12:41:26.819Z,25.20
2018-05-07T12:43:55.182Z,25.40
2018-05-07T12:46:22.759Z,25.40
2018-05-07T12:48:50.347Z,25.40
2018-05-07T12:51:18.605Z,25.70
2018-05-07T12:53:46.090Z,25.60
2018-05-07T12:56:13.643Z,25.60
2018-05-07T12:58:41.251Z,25.70
2018-05-07T13:01:08.778Z,25.70
2018-05-07T13:03:36.287Z,25.70
2018-05-07T13:06:03.784Z,25.80
2018-05-07T13:08:31.281Z,25.70
2018-05-07T13:10:58.817Z,25.90
2018-05-07T13:13:26.302Z,25.90
2018-05-07T13:15:53.858Z,26.00
2018-05-07T13:18:21.375Z,26.10
2018-05-07T13:20:48.865Z,26.10
2018-05-07T13:23:16.368Z,26.20
2018-05-07T13:25:44.626Z,26.20
2018-05-07T13:28:12.913Z,26.40
2018-05-07T13:30:41.203Z,26.50
2018-05-07T13:33:08.716Z,26.40
2018-05-07T13:35:36.215Z,26.60
2018-05-07T13:38:04.499Z,26.70
2018-05-07T13:40:32.021Z,26.70
2018-05-07T13:42:59.514Z,26.80
2018-05-07T13:45:27.043Z,26.80
2018-05-07T13:47:54.534Z,26.80
2018-05-07T13:50:22.049Z,26.80
2018-05-07T13:52:50.189Z,26.90
2018-05-07T13:55:17.697Z,27.10
2018-05-07T13:57:45.963Z,27.10
2018-05-07T14:00:13.456Z,27.00
2018-05-07T14:02:40.970Z,27.00
2018-05-07T14:05:08.455Z,26.80
2018-05-07T14:07:36.006Z,26.90
2018-05-07T14:10:04.303Z,27.10
2018-05-07T14:12:31.750Z,27.10
2018-05-07T14:14:59.266Z,27.20
2018-05-07T14:17:26.773Z,27.20
2018-05-07T14:19:54.328Z,27.10
2018-05-07T14:22:22.592Z,27.00
2018-05-07T14:24:50.850Z,27.00
2018-05-07T14:27:18.340Z,27.00
2018-05-07T14:29:45.845Z,27.00
2018-05-07T14:32:13.330Z,27.00
2018-05-07T14:34:40.854Z,27.20
2018-05-07T14:37:08.380Z,27.40
2018-05-07T14:39:35.904Z,27.30
2018-05-07T14:42:04.157Z,27.50
2018-05-07T14:44:31.661Z,27.40
2018-05-07T14:46:59.155Z,27.70
2018-05-07T14:49:26.650Z,28.10
2018-05-07T14:51:54.918Z,28.30
2018-05-07T14:54:22.412Z,28.30
2018-05-07T14:56:49.898Z,28.30
2018-05-07T14:59:17.412Z,28.50
2018-05-07T15:01:45.059Z,28.80
2018-05-07T15:04:13.303Z,29.70
2018-05-07T15:06:40.810Z,29.70
2018-05-07T15:09:08.314Z,30.50
2018-05-07T15:11:35.806Z,31.30
2018-05-07T15:14:15.881Z,32.20
2018-05-07T15:16:43.390Z,32.10
2018-05-07T15:19:10.905Z,32.10
2018-05-07T15:21:38.475Z,31.90
2018-05-07T15:24:06.748Z,32.30
2018-05-07T15:26:34.240Z,32.20
2018-05-07T15:29:01.765Z,31.70
2018-05-07T15:31:29.273Z,31.10
2018-05-07T15:33:56.779Z,30.50
2018-05-07T15:36:24.408Z,30.10
2018-05-07T15:38:51.855Z,29.70
2018-05-07T15:41:20.137Z,29.00
2018-05-07T15:43:49.160Z,28.70
2018-05-07T15:46:16.644Z,28.60
2018-05-07T15:48:44.169Z,28.30
2018-05-07T15:51:11.705Z,27.90
2018-05-07T15:53:39.322Z,27.30
2018-05-07T15:56:06.840Z,27.10
2018-05-07T15:58:34.368Z,26.90
2018-05-07T16:01:01.891Z,26.90
2018-05-07T16:03:29.402Z,26.70
2018-05-07T16:05:57.669Z,26.30
2018-05-07T16:08:25.209Z,26.30
2018-05-07T16:10:52.684Z,26.20
2018-05-07T16:13:20.943Z,26.00
2018-05-07T16:15:48.469Z,26.00
2018-05-07T16:18:15.967Z,25.90
2018-05-07T16:20:44.321Z,25.70
2018-05-07T16:23:11.809Z,25.60
2018-05-07T16:25:39.275Z,25.60
2018-05-07T16:28:07.675Z,25.40
2018-05-07T16:30:35.107Z,25.40
2018-05-07T16:33:03.429Z,25.30
2018-05-07T16:35:30.911Z,25.30
2018-05-07T16:37:58.409Z,25.30
2018-05-07T16:40:25.933Z,25.20
2018-05-07T16:42:53.508Z,25.20
2018-05-07T16:45:21.794Z,25.20
2018-05-07T16:47:49.302Z,25.10
2018-05-07T16:50:16.947Z,25.20
2018-05-07T16:52:44.485Z,25.10
2018-05-07T16:55:12.002Z,25.10
2018-05-07T16:57:39.555Z,25.10
2018-05-07T17:00:07.267Z,25.00
2018-05-07T17:02:34.932Z,25.00
2018-05-07T17:05:02.439Z,25.00
2018-05-07T17:07:30.719Z,25.00
2018-05-07T17:09:58.380Z,24.90
2018-05-07T17:12:25.918Z,24.90
2018-05-07T17:14:53.406Z,24.90
2018-05-07T17:17:20.901Z,24.90
2018-05-07T17:19:48.487Z,24.80
2018-05-07T17:22:15.976Z,24.70
2018-05-07T17:24:44.496Z,24.70
2018-05-07T17:27:12.009Z,24.70
2018-05-07T17:29:39.521Z,24.50
2018-05-07T17:32:07.156Z,24.30
2018-05-07T17:34:34.642Z,24.20
2018-05-07T17:37:02.176Z,24.10
2018-05-07T17:39:29.648Z,24.10
2018-05-07T17:41:57.192Z,24.10
2018-05-07T17:44:36.656Z,24.00
2018-05-07T17:47:15.932Z,23.80
2018-05-07T17:49:43.556Z,23.80
2018-05-07T17:52:11.064Z,23.80
2018-05-07T17:54:38.659Z,23.70
2018-05-07T17:57:07.006Z,23.70
2018-05-07T17:59:34.489Z,23.50
2018-05-07T18:02:02.010Z,23.50
2018-05-07T18:04:29.537Z,23.50
2018-05-07T18:06:57.037Z,23.50
2018-05-07T18:09:24.596Z,23.50
2018-05-07T18:11:52.085Z,23.50
2018-05-07T18:14:20.351Z,23.50
2018-05-07T18:16:47.954Z,23.40
2018-05-07T18:19:15.482Z,23.40
2018-05-07T18:21:43.084Z,23.40
2018-05-07T18:24:10.578Z,23.30
2018-05-07T18:26:38.100Z,23.30
2018-05-07T18:29:05.750Z,23.30
2018-05-07T18:31:33.253Z,23.20
2018-05-07T18:34:00.757Z,23.10
2018-05-07T18:36:28.396Z,23.00
2018-05-07T18:38:55.913Z,23.00
2018-05-07T18:41:23.398Z,22.70
2018-05-07T18:43:51.191Z,22.60
2018-05-07T18:46:18.742Z,22.60
2018-05-07T18:48:46.242Z,22.50
2018-05-07T18:51:14.538Z,22.20
2018-05-07T18:53:42.033Z,22.10
2018-05-07T18:56:09.529Z,22.00
2018-05-07T18:58:37.209Z,21.90
2018-05-07T19:01:04.743Z,21.70
2018-05-07T19:03:33.342Z,21.50
2018-05-07T19:06:01.598Z,21.40
2018-05-07T19:08:29.910Z,21.30
2018-05-07T19:10:57.402Z,21.20
2018-05-07T19:13:25.286Z,21.20
2018-05-07T19:15:52.846Z,21.20
2018-05-07T19:18:20.365Z,21.10
2018-05-07T19:20:47.873Z,20.80
2018-05-07T19:23:16.179Z,20.70
2018-05-07T19:25:43.699Z,20.70
2018-05-07T19:28:11.267Z,20.50
2018-05-07T19:30:39.578Z,20.20
2018-05-07T19:33:07.282Z,20.20
2018-05-07T19:35:34.787Z,20.00
2018-05-07T19:38:02.293Z,19.90
2018-05-07T19:40:29.792Z,19.80
2018-05-07T19:42:57.380Z,19.70
2018-05-07T19:45:24.951Z,19.60
2018-05-07T19:47:52.510Z,19.50
2018-05-07T19:50:20.068Z,19.40
2018-05-07T19:52:48.052Z,19.30
2018-05-07T19:55:15.563Z,19.20
2018-05-07T19:57:43.094Z,19.10
2018-05-07T20:00:11.416Z,18.90
2018-05-07T20:02:38.903Z,18.90
2018-05-07T20:05:06.391Z,19.00
2018-05-07T20:07:34.657Z,18.70
2018-05-07T20:10:02.224Z,18.70
2018-05-07T20:12:30.536Z,18.60
2018-05-07T20:14:58.065Z,18.60
2018-05-07T20:17:25.704Z,18.50
2018-05-07T20:19:53.281Z,18.50
2018-05-07T20:22:20.741Z,18.40
2018-05-07T20:24:49.008Z,18.20
2018-05-07T20:27:17.283Z,18.10
2018-05-07T21:02:45.829Z,17.30
2018-05-07T21:05:13.398Z,17.20
2018-05-07T21:07:41.117Z,17.20
2018-05-07T21:10:08.610Z,17.10
2018-05-07T21:12:36.221Z,17.20
2018-05-07T21:23:43.561Z,17.40
2018-05-07T21:26:11.994Z,17.40
2018-05-07T21:28:39.538Z,17.40
2018-05-07T21:31:14.129Z,17.40
2018-05-07T21:33:42.603Z,17.60
2018-05-07T21:36:10.303Z,17.60
2018-05-07T21:38:37.971Z,17.80
2018-05-07T21:41:29.724Z,18.20
2018-05-07T21:43:57.307Z,18.60
2018-05-07T21:46:25.038Z,18.80
2018-05-07T21:48:52.549Z,18.90
2018-05-07T21:51:20.065Z,18.90
2018-05-07T21:53:47.565Z,19.00
2018-05-07T21:56:15.329Z,19.10
2018-05-07T21:58:42.878Z,19.10
2018-05-07T22:01:11.132Z,19.20
2018-05-07T22:03:38.701Z,19.20
2018-05-07T22:06:07.000Z,19.40
2018-05-07T22:08:34.687Z,19.30
2018-05-07T22:11:02.289Z,19.50
2018-05-07T22:13:29.919Z,19.60
2018-05-07T22:15:57.350Z,19.70
2018-05-07T22:18:25.690Z,20.00
2018-05-07T22:20:53.248Z,19.90
2018-05-07T22:23:21.555Z,20.10
2018-05-07T22:25:49.084Z,20.10
2018-05-07T22:28:16.674Z,20.20
2018-05-07T22:30:44.161Z,20.20
2018-05-07T22:33:11.670Z,20.30
2018-05-07T22:35:40.073Z,20.30
2018-05-07T22:38:07.690Z,20.30
2018-05-07T22:43:36.082Z,20.40
2018-05-07T22:46:03.955Z,20.50
2018-05-07T22:48:32.804Z,20.40
2018-05-07T22:51:00.323Z,20.40
2018-05-07T22:53:27.856Z,20.40
2018-05-07T22:55:55.511Z,20.40
2018-05-07T22:58:23.045Z,20.40
2018-05-07T23:00:50.601Z,20.40
2018-05-07T23:03:18.810Z,20.40
2018-05-07T23:05:46.307Z,20.40
2018-05-07T23:08:13.799Z,20.40
2018-05-07T23:10:41.647Z,20.40
2018-05-07T23:13:09.154Z,20.30
2018-05-07T23:15:37.497Z,20.30
2018-05-07T23:18:05.012Z,20.30
2018-05-07T23:20:32.496Z,20.30
2018-05-07T23:23:00.003Z,20.40
2018-05-07T23:25:28.313Z,20.40
2018-05-07T23:27:55.931Z,20.40
2018-05-07T23:30:23.439Z,20.40
2018-05-07T23:35:44.125Z,20.50
2018-05-07T23:38:12.409Z,20.40
2018-05-07T23:40:39.904Z,20.40
2018-05-07T23:43:07.633Z,20.40
2018-05-07T23:45:35.137Z,20.30
2018-05-07T23:48:02.638Z,20.20
2018-05-07T23:50:30.938Z,20.10
2018-05-07T23:52:58.430Z,20.10
2018-05-07T23:55:26.504Z,20.00
2018-05-07T23:57:54.047Z,20.00
